Time;durP1;ratioP1;P1;durP2;ratioP2;P2;SDS_P1;SDS_P2;PMS_P1;PMS_P2;Temp;Humidity;BMP_temperature;BMP_pressure;BME280_temperature;BME280_humidity;BME280_pressure;Samples;Min_cycle;Max_cycle;Signal;HPM_P1;HPM_P2
2022/03/06 00:01:16;;;;;;;9.88;5.97;;;0.60;99.90;;;;;;6122790;23;20276;-90
2022/03/06 00:03:44;;;;;;;20.65;7.10;;;1.40;99.90;;;;;;6178641;23;20101;-90
2022/03/06 00:06:10;;;;;;;7.25;5.60;;;0.70;99.90;;;;;;6111109;23;20021;-90
2022/03/06 00:08:36;;;;;;;8.57;5.97;;;0.70;99.90;;;;;;6140360;23;20072;-90
2022/03/06 00:11:02;;;;;;;9.95;6.65;;;1.80;99.90;;;;;;6134479;23;20020;-91
2022/03/06 00:13:28;;;;;;;8.73;5.90;;;0.80;99.90;;;;;;6157844;23;20076;-90
2022/03/06 00:15:54;;;;;;;13.25;6.80;;;0.90;99.90;;;;;;6108625;23;20083;-90
2022/03/06 00:18:19;;;;;;;7.47;5.22;;;0.90;99.90;;;;;;6154424;23;20453;-89
2022/03/06 00:20:45;;;;;;;8.18;5.35;;;0.90;99.90;;;;;;6156985;23;20018;-90
2022/03/06 00:23:11;;;;;;;;;;;1.80;99.90;;;;;;6136816;23;20013;-87
2022/03/06 00:25:37;;;;;;;9.02;5.43;;;0.90;99.90;;;;;;6130284;23;19987;-88
2022/03/06 00:28:03;;;;;;;7.68;5.78;;;0.90;99.90;;;;;;6104863;23;20445;-88
2022/03/06 00:30:29;;;;;;;12.32;6.88;;;0.90;99.90;;;;;;6123654;23;20461;-88
2022/03/06 00:32:54;;;;;;;9.43;5.93;;;1.90;99.90;;;;;;6116138;23;20030;-88
2022/03/06 00:35:22;;;;;;;7.40;5.45;;;0.90;99.90;;;;;;6132920;23;20017;-88
2022/03/06 00:37:48;;;;;;;9.50;5.68;;;2.10;99.90;;;;;;6132758;23;20084;-88
2022/03/06 00:40:14;;;;;;;8.57;4.97;;;1.70;99.90;;;;;;6109578;23;20445;-88
2022/03/06 00:42:45;;;;;;;11.95;5.25;;;2.10;99.90;;;;;;6111655;23;20091;-89
2022/03/06 00:45:11;;;;;;;6.53;4.47;;;0.90;99.90;;;;;;6118331;23;20017;-88
2022/03/06 00:47:36;;;;;;;7.38;4.57;;;0.90;99.90;;;;;;6151639;23;20028;-88
2022/03/06 00:50:03;;;;;;;11.40;4.82;;;1.00;99.90;;;;;;6166546;23;20100;-89
2022/03/06 00:52:29;;;;;;;9.85;4.75;;;0.80;99.90;;;;;;6139642;23;20400;-88
2022/03/06 00:54:54;;;;;;;10.32;4.80;;;1.30;99.90;;;;;;6161706;23;20029;-88
2022/03/06 00:57:20;;;;;;;5.50;4.75;;;2.30;99.90;;;;;;6161607;23;20017;-88
2022/03/06 00:59:46;;;;;;;7.07;4.35;;;0.80;99.90;;;;;;6142837;23;20345;-89
2022/03/06 01:02:11;;;;;;;6.30;4.55;;;0.90;99.90;;;;;;6169170;23;20017;-88
2022/03/06 01:04:39;;;;;;;9.45;4.70;;;1.50;99.90;;;;;;6142520;23;20020;-89
2022/03/06 01:07:05;;;;;;;9.63;4.60;;;0.90;99.90;;;;;;6084339;23;20424;-91
2022/03/06 01:09:31;;;;;;;7.55;4.18;;;0.90;99.90;;;;;;6131663;23;20100;-90
2022/03/06 01:11:57;;;;;;;;;;;0.90;99.90;;;;;;6161407;23;20021;-90
2022/03/06 01:14:23;;;;;;;6.85;4.50;;;2.40;99.90;;;;;;6155537;23;19912;-89
2022/03/06 01:16:49;;;;;;;;;;;2.40;99.90;;;;;;6137298;23;20364;-88
2022/03/06 01:19:15;;;;;;;9.23;5.13;;;0.80;99.90;;;;;;6137216;23;19922;-89
2022/03/06 01:21:41;;;;;;;10.60;5.03;;;0.80;99.90;;;;;;6132681;23;20049;-91
2022/03/06 01:24:07;;;;;;;10.32;4.63;;;1.80;99.90;;;;;;6112195;23;20068;-89
2022/03/06 01:26:33;;;;;;;7.22;4.15;;;0.80;99.90;;;;;;6136785;23;20359;-89
2022/03/06 01:28:59;;;;;;;9.00;4.63;;;1.90;99.90;;;;;;6159518;23;20396;-88
2022/03/06 01:31:24;;;;;;;10.00;4.68;;;1.90;99.90;;;;;;6162219;23;20025;-89
2022/03/06 01:33:50;;;;;;;6.65;4.32;;;1.00;99.90;;;;;;6160029;23;20044;-88
2022/03/06 01:36:16;;;;;;;7.25;4.15;;;0.90;99.90;;;;;;6161052;23;20021;-88
2022/03/06 01:38:41;;;;;;;13.25;4.95;;;0.80;99.90;;;;;;6135073;23;20017;-89
2022/03/06 01:41:07;;;;;;;7.75;5.30;;;1.00;99.90;;;;;;6111904;23;20019;-88
2022/03/06 01:43:33;;;;;;;9.20;4.85;;;2.10;99.90;;;;;;6136518;23;20020;-88
2022/03/06 01:45:58;;;;;;;6.50;4.28;;;0.90;99.90;;;;;;6081804;23;20345;-89
2022/03/06 01:48:24;;;;;;;7.75;5.20;;;1.00;99.90;;;;;;6129504;23;20025;-88
2022/03/06 01:50:50;;;;;;;6.43;3.50;;;0.80;99.90;;;;;;6134592;23;20076;-88
2022/03/06 01:53:16;;;;;;;9.00;5.05;;;0.90;99.90;;;;;;6135407;23;20013;-89
2022/03/06 01:55:43;;;;;;;7.47;4.85;;;0.80;99.90;;;;;;6111024;23;20017;-88
2022/03/06 01:58:10;;;;;;;5.32;3.67;;;0.80;99.90;;;;;;6159043;23;20021;-88
2022/03/06 02:00:44;;;;;;;7.88;5.03;;;0.80;99.90;;;;;;6134800;23;20021;-88
2022/03/06 02:03:11;;;;;;;6.15;4.20;;;0.80;99.90;;;;;;6134453;23;20021;-89
2022/03/06 02:05:38;;;;;;;4.88;3.55;;;2.20;99.90;;;;;;6110709;23;20471;-89
2022/03/06 02:08:05;;;;;;;10.75;4.28;;;0.80;99.90;;;;;;6135920;23;20028;-87
2022/03/06 02:10:32;;;;;;;4.00;3.28;;;0.80;99.90;;;;;;6160328;23;20021;-88
2022/03/06 02:12:58;;;;;;;4.90;3.58;;;0.80;99.90;;;;;;6136368;23;20027;-90
2022/03/06 02:15:24;;;;;;;5.63;3.58;;;2.30;99.90;;;;;;6106129;23;20049;-89
2022/03/06 02:17:50;;;;;;;5.85;3.90;;;1.80;99.90;;;;;;6158309;23;20325;-89
2022/03/06 02:20:24;;;;;;;4.97;3.63;;;0.90;99.90;;;;;;6161152;23;20337;-89
2022/03/06 02:22:56;;;;;;;5.30;3.45;;;0.90;99.90;;;;;;6162982;23;20021;-88
2022/03/06 02:25:28;;;;;;;7.45;4.03;;;0.90;99.90;;;;;;6135199;23;20052;-88
2022/03/06 02:27:56;;;;;;;5.13;3.38;;;0.90;99.90;;;;;;6160043;23;20021;-88
2022/03/06 02:30:30;;;;;;;7.32;3.53;;;2.60;99.90;;;;;;6111331;23;20147;-87
2022/03/06 02:32:58;;;;;;;7.78;3.45;;;1.00;99.90;;;;;;6130023;23;20072;-87
2022/03/06 02:35:24;;;;;;;5.03;3.40;;;1.00;99.90;;;;;;6105193;23;20115;-88
2022/03/06 02:37:50;;;;;;;4.75;3.25;;;1.00;99.90;;;;;;6157121;23;20406;-86
2022/03/06 02:40:18;;;;;;;5.20;3.30;;;2.50;99.90;;;;;;6160233;23;20013;-88
2022/03/06 02:42:46;;;;;;;4.90;2.78;;;2.30;99.90;;;;;;6165721;23;20024;-88
2022/03/06 02:45:19;;;;;;;5.13;3.50;;;0.90;99.90;;;;;;6143631;23;20013;-88
2022/03/06 02:47:46;;;;;;;6.32;3.92;;;1.00;99.90;;;;;;6159895;23;20453;-89
2022/03/06 02:50:19;;;;;;;4.15;3.22;;;1.10;99.90;;;;;;6136486;23;20463;-89
2022/03/06 02:52:45;;;;;;;7.90;3.08;;;0.90;99.90;;;;;;6136022;23;20092;-89
2022/03/06 02:55:13;;;;;;;4.93;3.38;;;0.90;99.90;;;;;;6111858;23;20021;-88
2022/03/06 02:57:39;;;;;;;7.32;4.03;;;2.30;99.90;;;;;;6135315;23;20088;-87
2022/03/06 03:00:06;;;;;;;;;;;2.20;99.90;;;;;;6133957;23;20054;-89
2022/03/06 03:02:32;;;;;;;5.25;3.35;;;0.90;99.90;;;;;;6158332;23;19935;-89
2022/03/06 03:04:58;;;;;;;4.78;3.50;;;0.90;99.90;;;;;;6113650;23;20009;-88
2022/03/06 03:07:24;;;;;;;7.65;4.05;;;0.90;99.90;;;;;;6146582;23;20017;-88
2022/03/06 03:09:50;;;;;;;5.95;3.90;;;0.90;99.90;;;;;;6137568;23;20021;-88
2022/03/06 03:12:16;;;;;;;5.28;3.88;;;0.90;99.90;;;;;;6159742;23;20027;-89
2022/03/06 03:14:41;;;;;;;7.80;3.33;;;2.20;99.90;;;;;;6159637;23;20013;-90
2022/03/06 03:17:07;;;;;;;6.38;3.90;;;1.50;99.90;;;;;;6159190;23;20055;-89
2022/03/06 03:19:33;;;;;;;7.55;3.95;;;0.90;99.90;;;;;;6158958;23;20138;-88
2022/03/06 03:21:59;;;;;;;8.10;3.10;;;0.90;99.90;;;;;;6157829;23;20013;-89
2022/03/06 03:24:25;;;;;;;4.72;3.25;;;1.30;99.90;;;;;;6154949;23;20017;-88
2022/03/06 03:26:51;;;;;;;4.80;3.10;;;1.10;99.90;;;;;;6151135;23;20016;-88
2022/03/06 03:29:16;;;;;;;8.15;3.30;;;0.80;99.90;;;;;;6112888;23;20348;-89
2022/03/06 03:31:42;;;;;;;5.88;3.95;;;1.90;99.90;;;;;;6138356;23;20021;-88
2022/03/06 03:34:08;;;;;;;5.00;3.33;;;0.80;99.90;;;;;;6159332;23;20017;-89
2022/03/06 03:36:34;;;;;;;6.55;3.75;;;0.70;99.90;;;;;;6110924;23;20356;-89
2022/03/06 03:38:59;;;;;;;5.25;3.20;;;1.00;99.90;;;;;;6134980;23;20024;-88
2022/03/06 03:41:25;;;;;;;9.50;3.50;;;0.70;99.90;;;;;;6110755;23;20071;-88
2022/03/06 03:43:52;;;;;;;6.47;4.20;;;0.60;99.90;;;;;;6160768;23;20024;-88
2022/03/06 03:46:19;;;;;;;10.52;4.20;;;0.50;99.90;;;;;;6174991;23;20020;-88
2022/03/06 03:48:44;;;;;;;6.55;3.67;;;0.40;99.90;;;;;;6125824;23;20041;-87
2022/03/06 03:51:10;;;;;;;7.13;3.78;;;0.80;99.90;;;;;;6091271;23;20028;-89
2022/03/06 03:53:36;;;;;;;6.20;3.60;;;0.30;99.90;;;;;;6157361;23;20018;-90
2022/03/06 03:56:06;;;;;;;5.28;4.05;;;0.20;99.90;;;;;;6135288;23;20021;-88
2022/03/06 03:58:33;;;;;;;5.03;3.33;;;0.20;99.90;;;;;;6159424;23;20048;-88
2022/03/06 04:00:59;;;;;;;7.32;3.47;;;0.20;99.90;;;;;;6159217;23;20071;-89
2022/03/06 04:03:25;;;;;;;6.43;3.72;;;0.20;99.90;;;;;;6134247;23;20028;-88
2022/03/06 04:05:51;;;;;;;6.45;3.90;;;0.10;99.90;;;;;;6110052;23;20396;-87
2022/03/06 04:08:17;;;;;;;5.85;3.88;;;0.10;99.90;;;;;;6159793;23;20313;-89
2022/03/06 04:10:43;;;;;;;8.10;4.10;;;0.10;99.90;;;;;;6134054;23;20052;-88
2022/03/06 04:13:08;;;;;;;5.93;3.92;;;0.10;99.90;;;;;;6133634;23;20100;-88
2022/03/06 04:15:35;;;;;;;8.07;3.88;;;0.30;99.90;;;;;;6157702;23;20039;-87
2022/03/06 04:18:01;;;;;;;6.13;4.45;;;0.00;99.90;;;;;;6133147;23;20340;-87
2022/03/06 04:20:26;;;;;;;5.40;3.42;;;-0.10;99.90;;;;;;6170070;23;20017;-89
2022/03/06 04:22:52;;;;;;;8.43;4.15;;;-0.10;99.90;;;;;;6133490;23;20019;-87
2022/03/06 04:25:18;;;;;;;6.05;3.22;;;-0.20;99.90;;;;;;6109334;23;20055;-88
2022/03/06 04:27:44;;;;;;;5.20;3.92;;;-0.50;99.90;;;;;;6133682;23;20028;-88
2022/03/06 04:30:10;;;;;;;6.47;4.07;;;1.10;99.90;;;;;;6134520;23;20039;-89
2022/03/06 04:32:36;;;;;;;5.10;3.60;;;-0.40;99.90;;;;;;6110306;23;20017;-89
2022/03/06 04:35:02;;;;;;;;;;;0.80;99.90;;;;;;6106164;23;20024;-89
2022/03/06 04:37:28;;;;;;;7.82;3.90;;;-0.50;99.90;;;;;;6106420;23;19916;-89
2022/03/06 04:39:53;;;;;;;6.78;3.88;;;-0.50;99.90;;;;;;6114724;23;20017;-89
2022/03/06 04:42:19;;;;;;;11.00;3.72;;;1.10;99.90;;;;;;6085279;23;20021;-89
2022/03/06 04:44:45;;;;;;;;;;;-0.50;99.90;;;;;;6135715;23;20441;-88
2022/03/06 04:47:10;;;;;;;6.32;3.85;;;-0.70;99.90;;;;;;6138648;23;19913;-89
2022/03/06 04:49:36;;;;;;;5.60;3.67;;;-0.70;99.90;;;;;;6179817;23;20344;-88
2022/03/06 04:52:02;;;;;;;;;;;-0.30;99.90;;;;;;6084468;23;20021;-89
2022/03/06 04:54:28;;;;;;;7.00;3.70;;;-0.80;99.90;;;;;;6149649;23;19916;-89
2022/03/06 04:56:54;;;;;;;6.10;3.75;;;-0.80;99.90;;;;;;6109760;23;20437;-88
2022/03/06 04:59:19;;;;;;;7.90;3.42;;;-0.80;99.90;;;;;;6158465;23;20468;-88
2022/03/06 05:01:45;;;;;;;7.43;2.80;;;-0.80;99.90;;;;;;6133302;23;20447;-88
2022/03/06 05:04:11;;;;;;;5.38;4.03;;;-0.80;99.90;;;;;;6133417;23;20417;-88
2022/03/06 05:06:36;;;;;;;;;;;0.60;99.90;;;;;;6113025;23;20043;-89
2022/03/06 05:09:02;;;;;;;4.45;3.15;;;-0.80;99.90;;;;;;6159540;23;19912;-88
2022/03/06 05:11:28;;;;;;;4.57;3.10;;;0.10;99.90;;;;;;6133447;23;20123;-88
2022/03/06 05:13:54;;;;;;;5.05;3.38;;;0.60;99.90;;;;;;6134605;23;20024;-88
2022/03/06 05:16:20;;;;;;;5.30;3.47;;;-1.00;99.90;;;;;;6135260;23;20053;-88
2022/03/06 05:18:46;;;;;;;3.72;3.15;;;-1.00;99.90;;;;;;6157253;23;20075;-88
2022/03/06 05:21:11;;;;;;;;;;;-1.00;99.90;;;;;;6134580;23;20017;-88
2022/03/06 05:23:37;;;;;;;4.40;3.65;;;-1.00;99.90;;;;;;6127387;23;19912;-88
2022/03/06 05:26:03;;;;;;;;;;;-1.10;99.90;;;;;;6159374;23;20436;-87
2022/03/06 05:28:28;;;;;;;4.97;3.22;;;-1.10;99.90;;;;;;6158737;23;20014;-87
2022/03/06 05:30:54;;;;;;;4.68;3.20;;;0.40;99.90;;;;;;6160670;23;20039;-87
2022/03/06 05:33:20;;;;;;;;;;;-0.20;99.90;;;;;;6134561;23;20025;-88
2022/03/06 05:35:46;;;;;;;5.30;3.28;;;-1.20;99.90;;;;;;6159015;23;19961;-87
2022/03/06 05:38:12;;;;;;;5.20;2.78;;;0.10;99.90;;;;;;6159973;23;20608;-87
2022/03/06 05:40:38;;;;;;;;;;;-0.90;99.90;;;;;;6160488;23;20336;-87
2022/03/06 05:43:04;;;;;;;3.00;2.70;;;-1.20;99.90;;;;;;6136514;23;19916;-85
2022/03/06 05:45:29;;;;;;;;;;;-1.20;99.90;;;;;;6130168;23;20037;-86
2022/03/06 05:47:55;;;;;;;5.53;3.25;;;-1.30;99.90;;;;;;6175239;23;19916;-88
2022/03/06 05:50:21;;;;;;;;;;;-1.40;99.90;;;;;;6161391;23;20025;-87
2022/03/06 05:52:48;;;;;;;4.65;3.78;;;0.00;99.90;;;;;;6133785;23;19978;-88
2022/03/06 05:55:14;;;;;;;4.93;3.42;;;-1.40;99.90;;;;;;6107617;23;20468;-88
2022/03/06 05:57:41;;;;;;;4.25;3.05;;;-0.30;99.90;;;;;;6134855;23;20321;-88
2022/03/06 06:00:08;;;;;;;;;;;-1.70;99.90;;;;;;6135020;23;20088;-88
2022/03/06 06:02:37;;;;;;;3.72;2.92;;;-1.50;99.90;;;;;;6135131;23;19916;-87
2022/03/06 06:05:09;;;;;;;4.35;3.10;;;-1.50;99.90;;;;;;6108560;23;20089;-87
2022/03/06 06:07:35;;;;;;;6.20;4.03;;;-1.50;99.90;;;;;;6158717;23;20104;-88
2022/03/06 06:10:02;;;;;;;8.82;3.85;;;-1.50;99.90;;;;;;6134150;23;20024;-88
2022/03/06 06:12:28;;;;;;;4.38;3.40;;;-1.50;99.90;;;;;;6161612;23;20017;-87
2022/03/06 06:14:54;;;;;;;4.50;3.47;;;-0.20;99.90;;;;;;6091067;23;20028;-87
2022/03/06 06:17:20;;;;;;;5.95;4.22;;;-1.50;99.90;;;;;;6142908;23;20048;-87
2022/03/06 06:19:47;;;;;;;6.78;3.75;;;-1.50;99.90;;;;;;6108295;23;20084;-88
2022/03/06 06:22:13;;;;;;;7.88;3.55;;;-1.50;99.90;;;;;;6135061;23;20340;-87
2022/03/06 06:24:39;;;;;;;4.22;2.90;;;-1.20;99.90;;;;;;6135853;23;20024;-87
2022/03/06 06:27:05;;;;;;;3.58;3.08;;;-1.50;99.90;;;;;;6159051;23;20453;-87
2022/03/06 06:29:30;;;;;;;;;;;-1.50;99.90;;;;;;6083416;23;20397;-86
2022/03/06 06:31:57;;;;;;;4.63;3.05;;;-1.50;99.90;;;;;;6187217;23;19946;-87
2022/03/06 06:34:22;;;;;;;;;;;-1.50;99.90;;;;;;6111577;23;20067;-87
2022/03/06 06:36:49;;;;;;;5.70;2.90;;;-1.40;99.90;;;;;;6159904;23;19915;-88
2022/03/06 06:39:15;;;;;;;4.35;3.28;;;0.20;99.90;;;;;;6136021;23;20467;-87
2022/03/06 06:41:42;;;;;;;4.22;2.45;;;-1.40;99.90;;;;;;6159676;23;20091;-87
2022/03/06 06:44:09;;;;;;;3.60;3.28;;;-1.30;99.90;;;;;;6110367;23;20023;-88
2022/03/06 06:46:36;;;;;;;4.72;2.80;;;-1.30;99.90;;;;;;6179774;23;20025;-88
2022/03/06 06:49:03;;;;;;;3.45;2.53;;;-1.20;99.90;;;;;;6157693;23;20083;-88
2022/03/06 06:51:30;;;;;;;3.20;2.85;;;-1.20;99.90;;;;;;6160106;23;20372;-88
2022/03/06 06:53:56;;;;;;;7.00;3.10;;;-1.10;99.90;;;;;;6160421;23;20017;-88
2022/03/06 06:56:22;;;;;;;;;;;0.30;99.90;;;;;;6135791;23;20024;-89
2022/03/06 06:58:48;;;;;;;3.50;2.65;;;-1.00;99.90;;;;;;6183195;23;19912;-87
2022/03/06 07:01:16;;;;;;;3.03;2.40;;;-0.90;99.90;;;;;;6109339;23;20083;-88
2022/03/06 07:03:41;;;;;;;3.40;2.75;;;-0.90;99.90;;;;;;6158662;23;20088;-86
2022/03/06 07:06:07;;;;;;;2.67;2.47;;;0.30;99.90;;;;;;6117418;23;20017;-86
2022/03/06 07:08:33;;;;;;;;;;;-0.70;99.90;;;;;;6109760;23;20014;-87
2022/03/06 07:10:58;;;;;;;3.28;2.67;;;0.40;99.90;;;;;;6159565;23;19919;-88
2022/03/06 07:13:24;;;;;;;2.65;2.22;;;-0.50;99.90;;;;;;6128771;23;20159;-89
2022/03/06 07:15:50;;;;;;;3.05;2.30;;;-0.30;99.90;;;;;;6144294;23;20072;-89
2022/03/06 07:18:16;;;;;;;3.47;2.30;;;1.30;99.90;;;;;;6156788;23;20021;-88
2022/03/06 07:20:42;;;;;;;4.03;2.45;;;0.00;99.90;;;;;;6142825;23;20401;-89
2022/03/06 07:23:07;;;;;;;;;;;-0.10;99.90;;;;;;6165329;23;20013;-89
2022/03/06 07:25:33;;;;;;;3.25;2.30;;;-0.10;99.90;;;;;;6156148;23;19967;-88
2022/03/06 07:27:59;;;;;;;3.58;2.38;;;-0.10;99.90;;;;;;6159941;23;20021;-88
2022/03/06 07:30:25;;;;;;;2.53;2.15;;;0.10;99.90;;;;;;6135606;23;20025;-90
2022/03/06 07:32:51;;;;;;;;;;;-0.10;99.90;;;;;;6162482;23;20052;-90
2022/03/06 07:35:18;;;;;;;2.85;2.25;;;0.00;99.90;;;;;;6154256;23;19994;-88
2022/03/06 07:37:44;;;;;;;2.50;2.10;;;0.10;99.90;;;;;;6135354;23;20020;-89
2022/03/06 07:40:13;;;;;;;3.13;2.20;;;1.50;99.90;;;;;;6135613;23;20464;-88
2022/03/06 07:42:39;;;;;;;6.55;2.42;;;0.30;99.90;;;;;;6136425;23;20441;-90
2022/03/06 07:45:05;;;;;;;3.00;2.65;;;0.30;99.90;;;;;;6111131;23;20099;-89
2022/03/06 07:47:31;;;;;;;3.55;2.70;;;0.40;99.90;;;;;;6167089;23;20017;-89
2022/03/06 07:49:56;;;;;;;2.85;2.53;;;0.50;99.90;;;;;;6109809;23;20270;-88
2022/03/06 07:52:22;;;;;;;3.70;2.47;;;0.60;99.90;;;;;;6161531;23;20020;-87
2022/03/06 07:54:48;;;;;;;3.15;2.55;;;0.70;99.90;;;;;;6139632;23;20377;-89
2022/03/06 07:57:14;;;;;;;3.35;2.53;;;1.70;99.90;;;;;;6109820;23;20017;-89
2022/03/06 07:59:39;;;;;;;5.10;2.50;;;0.90;99.90;;;;;;6109306;23;20013;-89
2022/03/06 08:02:05;;;;;;;2.85;2.20;;;0.90;99.90;;;;;;6110128;23;20013;-89
2022/03/06 08:04:31;;;;;;;3.67;2.22;;;1.00;99.90;;;;;;6159878;23;20017;-89
2022/03/06 08:06:56;;;;;;;4.07;2.40;;;1.10;99.90;;;;;;6088698;23;20017;-88
2022/03/06 08:09:25;;;;;;;3.10;2.17;;;2.50;99.90;;;;;;6124374;23;20025;-90
2022/03/06 08:11:52;;;;;;;3.28;2.60;;;1.80;99.90;;;;;;6111118;23;20021;-89
2022/03/06 08:14:17;;;;;;;3.47;2.63;;;2.40;99.90;;;;;;6135226;23;20045;-87
2022/03/06 08:16:43;;;;;;;3.03;2.45;;;1.90;99.90;;;;;;6085331;23;20449;-88
2022/03/06 08:19:09;;;;;;;5.43;2.83;;;1.50;99.90;;;;;;6106347;23;20052;-91
2022/03/06 08:21:35;;;;;;;3.97;2.13;;;1.80;99.90;;;;;;6129468;23;20052;-89
2022/03/06 08:24:00;;;;;;;3.63;2.28;;;1.70;99.90;;;;;;6118448;23;20047;-88
2022/03/06 08:26:27;;;;;;;4.35;2.58;;;2.20;99.90;;;;;;6082472;23;20025;-91
2022/03/06 08:28:58;;;;;;;7.18;3.08;;;2.40;99.90;;;;;;6130247;23;20029;-89
2022/03/06 08:31:24;;;;;;;4.40;2.55;;;1.80;99.90;;;;;;6133474;23;20021;-89
2022/03/06 08:33:50;;;;;;;4.10;3.08;;;2.40;99.90;;;;;;6108449;23;20326;-90
2022/03/06 08:36:16;;;;;;;4.07;2.30;;;1.90;99.90;;;;;;6118990;23;20068;-89
2022/03/06 08:38:42;;;;;;;4.78;2.80;;;3.00;99.90;;;;;;6137800;23;20017;-90
2022/03/06 08:41:07;;;;;;;4.03;2.60;;;2.10;99.90;;;;;;6108627;23;20024;-90
2022/03/06 08:43:33;;;;;;;5.90;2.28;;;2.60;99.90;;;;;;6108112;23;20498;-89
2022/03/06 08:45:59;;;;;;;2.53;2.10;;;2.90;99.90;;;;;;6157343;23;20456;-89
2022/03/06 08:48:25;;;;;;;2.58;2.30;;;2.40;99.90;;;;;;6136347;23;20453;-89
2022/03/06 08:50:50;;;;;;;4.85;2.30;;;2.40;99.90;;;;;;6134831;23;20023;-89
2022/03/06 08:53:17;;;;;;;4.20;2.60;;;2.80;99.90;;;;;;6103483;23;20024;-89
2022/03/06 08:55:43;;;;;;;4.18;2.90;;;2.60;99.90;;;;;;6106171;23;20025;-89
2022/03/06 08:58:08;;;;;;;3.05;2.33;;;3.90;99.90;;;;;;6132941;23;20021;-87
2022/03/06 09:00:34;;;;;;;2.85;2.38;;;2.80;99.90;;;;;;6132867;23;20113;-89
2022/03/06 09:03:00;;;;;;;3.63;2.60;;;4.30;99.90;;;;;;6108733;23;20017;-89
2022/03/06 09:05:26;;;;;;;3.58;2.30;;;2.90;99.90;;;;;;6132750;23;20051;-90
2022/03/06 09:07:52;;;;;;;4.60;2.85;;;3.00;99.90;;;;;;6159589;23;20017;-90
2022/03/06 09:10:17;;;;;;;5.03;2.72;;;3.10;99.90;;;;;;6141668;23;20023;-87
2022/03/06 09:12:43;;;;;;;3.78;2.78;;;3.10;99.90;;;;;;6143197;23;20017;-89
2022/03/06 09:15:10;;;;;;;3.42;2.40;;;3.10;99.90;;;;;;6176017;23;20024;-89
2022/03/06 09:17:36;;;;;;;4.38;2.63;;;3.20;99.90;;;;;;6138662;23;20345;-90
2022/03/06 09:20:04;;;;;;;3.63;2.72;;;3.20;99.90;;;;;;6163043;23;20013;-89
2022/03/06 09:22:29;;;;;;;4.32;2.53;;;3.30;99.90;;;;;;6162236;23;20013;-89
2022/03/06 09:24:55;;;;;;;3.35;2.78;;;3.30;99.90;;;;;;6138637;23;20455;-89
2022/03/06 09:27:21;;;;;;;5.95;2.78;;;3.60;99.90;;;;;;6114091;23;20017;-89
2022/03/06 09:29:46;;;;;;;5.47;3.00;;;3.40;99.90;;;;;;6118706;23;20017;-89
2022/03/06 09:32:12;;;;;;;3.83;2.58;;;3.40;99.90;;;;;;6150039;23;20040;-90
2022/03/06 09:34:39;;;;;;;3.67;2.17;;;3.50;99.90;;;;;;6128526;23;20025;-91
2022/03/06 09:37:05;;;;;;;3.00;2.22;;;2.90;99.90;;;;;;6087163;23;20021;-89
2022/03/06 09:39:31;;;;;;;;;;;3.50;99.90;;;;;;6133321;23;20716;-89
2022/03/06 09:41:58;;;;;;;2.53;2.13;;;3.80;99.90;;;;;;6150062;23;19919;-89
2022/03/06 09:44:25;;;;;;;4.25;2.53;;;3.60;99.90;;;;;;6111548;23;20508;-89
2022/03/06 09:46:52;;;;;;;4.88;3.33;;;3.90;99.90;;;;;;6138758;23;20021;-89
2022/03/06 09:49:18;;;;;;;3.35;2.60;;;3.70;99.90;;;;;;6116631;23;20055;-90
2022/03/06 09:51:44;;;;;;;3.15;2.38;;;3.80;99.90;;;;;;6136581;23;20080;-88
2022/03/06 09:54:12;;;;;;;4.53;2.35;;;4.30;99.90;;;;;;6125540;23;20462;-89
2022/03/06 09:56:39;;;;;;;5.35;2.55;;;4.20;99.90;;;;;;6161003;23;20294;-89
2022/03/06 09:59:05;;;;;;;5.00;2.58;;;4.30;99.90;;;;;;6138631;23;20021;-89
2022/03/06 10:01:31;;;;;;;3.30;2.53;;;4.30;99.90;;;;;;6172111;23;20017;-86
2022/03/06 10:03:57;;;;;;;2.67;2.38;;;4.20;99.90;;;;;;6146834;23;20381;-88
2022/03/06 10:06:23;;;;;;;4.30;2.65;;;5.60;99.90;;;;;;6183946;23;20020;-88
2022/03/06 10:09:01;;;;;;;;;;;4.20;99.90;;;;;;6137066;23;20072;-88
2022/03/06 10:11:28;;;;;;;3.72;2.30;;;4.10;99.90;;;;;;6168769;23;19936;-89
2022/03/06 10:13:53;;;;;;;5.15;2.90;;;4.20;99.90;;;;;;6138631;23;20023;-87
2022/03/06 10:16:20;;;;;;;3.53;2.38;;;3.90;99.90;;;;;;6112573;23;20403;-90
2022/03/06 10:18:52;;;;;;;4.43;2.28;;;4.10;99.90;;;;;;6137724;23;20017;-90
2022/03/06 10:21:22;;;;;;;6.20;2.28;;;4.00;99.90;;;;;;6161274;23;20017;-90
2022/03/06 10:23:54;;;;;;;6.80;2.63;;;4.00;99.90;;;;;;6141477;23;20024;-87
2022/03/06 10:26:26;;;;;;;2.83;2.42;;;4.60;99.90;;;;;;6120790;23;20016;-88
2022/03/06 10:29:04;;;;;;;3.00;2.08;;;4.40;99.90;;;;;;6142190;23;20104;-88
2022/03/06 10:31:34;;;;;;;4.93;2.60;;;4.30;99.90;;;;;;6140374;23;20376;-88
2022/03/06 10:34:09;;;;;;;4.88;2.50;;;4.40;99.90;;;;;;6171970;23;20046;-88
2022/03/06 10:36:46;;;;;;;4.35;2.78;;;4.50;99.90;;;;;;6143428;23;20021;-88
2022/03/06 10:39:19;;;;;;;5.15;2.70;;;4.80;99.90;;;;;;6142044;23;20337;-88
2022/03/06 10:41:53;;;;;;;3.50;2.45;;;4.50;99.90;;;;;;6162396;23;20048;-88
2022/03/06 10:44:21;;;;;;;3.47;2.72;;;4.50;99.90;;;;;;6138408;23;20045;-89
2022/03/06 10:47:01;;;;;;;6.50;2.63;;;4.50;99.90;;;;;;6138394;23;20031;-89
2022/03/06 10:49:27;;;;;;;4.28;2.90;;;4.70;99.90;;;;;;6135724;23;20125;-89
2022/03/06 10:51:54;;;;;;;4.70;2.83;;;4.70;99.90;;;;;;6137840;23;20021;-89
2022/03/06 10:54:20;;;;;;;4.63;2.90;;;4.80;99.90;;;;;;6138627;23;20021;-89
2022/03/06 10:56:50;;;;;;;4.25;2.97;;;5.40;99.90;;;;;;6137881;23;20052;-89
2022/03/06 10:59:21;;;;;;;4.35;2.70;;;5.80;99.90;;;;;;6161573;23;20009;-89
2022/03/06 11:01:51;;;;;;;3.28;2.60;;;5.70;99.90;;;;;;6161291;23;20061;-89
2022/03/06 11:04:19;;;;;;;4.63;3.08;;;5.10;99.90;;;;;;6136075;23;20067;-88
2022/03/06 11:06:47;;;;;;;5.63;2.70;;;4.80;99.90;;;;;;6110545;23;20025;-89
2022/03/06 11:09:17;;;;;;;4.72;2.90;;;4.90;99.90;;;;;;6160884;23;20021;-89
2022/03/06 11:11:45;;;;;;;4.65;3.10;;;5.10;99.90;;;;;;6145337;23;20017;-89
2022/03/06 11:14:11;;;;;;;3.88;2.40;;;5.10;99.90;;;;;;6160851;23;20017;-90
2022/03/06 11:16:39;;;;;;;3.80;2.55;;;5.30;99.90;;;;;;6112657;23;20459;-90
2022/03/06 11:19:06;;;;;;;4.10;2.25;;;5.50;99.90;;;;;;6136904;23;20096;-89
2022/03/06 11:21:39;;;;;;;5.53;2.40;;;5.80;99.90;;;;;;6138252;23;20092;-90
2022/03/06 11:24:28;;;;;;;5.45;2.60;;;6.00;99.90;;;;;;6141165;23;20094;-93
2022/03/06 11:27:25;;;;;;;7.00;2.88;;;6.30;99.90;;;;;;6136528;23;20024;-90
2022/03/06 11:29:56;;;;;;;3.60;2.33;;;6.20;99.90;;;;;;6160577;23;20322;-91
2022/03/06 11:32:27;;;;;;;4.03;2.55;;;6.30;99.90;;;;;;6136968;23;20024;-90
2022/03/06 11:35:02;;;;;;;4.70;2.70;;;6.50;99.90;;;;;;6141448;23;20341;-91
2022/03/06 11:37:30;;;;;;;3.92;2.67;;;6.60;99.90;;;;;;6165073;23;20441;-88
2022/03/06 11:39:56;;;;;;;5.32;2.80;;;6.90;99.90;;;;;;6149379;23;20049;-90
2022/03/06 11:42:56;;;;;;;5.30;2.60;;;6.70;99.90;;;;;;6146965;23;20041;-91
2022/03/06 11:46:01;;;;;;;4.85;2.70;;;6.70;99.90;;;;;;6138186;23;20018;-89
2022/03/06 11:48:46;;;;;;;5.45;2.60;;;6.70;99.90;;;;;;6138208;23;20021;-91
2022/03/06 11:51:18;;;;;;;4.05;2.45;;;6.80;99.90;;;;;;6141806;23;20021;-88
2022/03/06 11:53:58;;;;;;;4.22;2.33;;;6.90;99.90;;;;;;6167387;23;20021;-87
2022/03/06 11:56:37;;;;;;;5.22;2.70;;;6.80;99.90;;;;;;6160919;23;20056;-89
2022/03/06 11:59:16;;;;;;;3.75;2.58;;;6.90;99.90;;;;;;6159326;23;20017;-88
2022/03/06 12:01:44;;;;;;;5.00;3.10;;;6.70;99.90;;;;;;6160620;23;20063;-88
2022/03/06 12:04:13;;;;;;;6.07;2.45;;;6.60;99.90;;;;;;6159453;23;20079;-90
2022/03/06 12:06:59;;;;;;;5.95;2.63;;;6.50;99.90;;;;;;6160563;23;20017;-90
2022/03/06 12:09:27;;;;;;;5.45;3.00;;;6.20;99.90;;;;;;6183253;23;20024;-90
2022/03/06 12:11:57;;;;;;;5.90;2.50;;;6.40;99.90;;;;;;6158623;23;20444;-88
2022/03/06 12:14:31;;;;;;;4.65;2.50;;;6.20;99.90;;;;;;6183761;23;20021;-89
2022/03/06 12:17:00;;;;;;;5.47;2.40;;;6.40;99.90;;;;;;6183364;23;20021;-89
2022/03/06 12:19:31;;;;;;;4.30;2.53;;;6.50;99.90;;;;;;6158111;23;20052;-89
2022/03/06 12:22:14;;;;;;;3.42;2.53;;;6.40;99.90;;;;;;6158710;23;20048;-88
2022/03/06 12:24:42;;;;;;;3.90;2.15;;;6.50;99.90;;;;;;6185172;23;20091;-88
2022/03/06 12:27:20;;;;;;;4.28;2.13;;;6.60;99.90;;;;;;6186863;23;20092;-89
2022/03/06 12:29:46;;;;;;;4.53;2.55;;;6.80;99.90;;;;;;6159544;23;20396;-88
2022/03/06 12:32:31;;;;;;;4.15;2.60;;;6.80;99.90;;;;;;6158698;23;20025;-88
2022/03/06 12:34:56;;;;;;;4.65;2.33;;;6.80;99.90;;;;;;6158461;23;20384;-89
2022/03/06 12:37:32;;;;;;;5.25;2.50;;;7.30;99.90;;;;;;6159220;23;20071;-89
2022/03/06 12:40:00;;;;;;;3.17;2.28;;;7.00;99.90;;;;;;6186015;23;20020;-90
2022/03/06 12:42:32;;;;;;;3.10;2.15;;;7.00;99.90;;;;;;6195631;23;20017;-88
2022/03/06 12:45:01;;;;;;;3.35;2.05;;;7.10;99.90;;;;;;6202190;23;20024;-89
2022/03/06 12:47:28;;;;;;;3.80;2.60;;;7.10;99.90;;;;;;6182199;23;20020;-89
2022/03/06 12:49:56;;;;;;;4.45;2.65;;;7.10;99.90;;;;;;6149786;23;20021;-90
2022/03/06 12:52:29;;;;;;;4.55;2.42;;;7.10;99.90;;;;;;6181201;23;20013;-89
2022/03/06 12:55:00;;;;;;;8.68;2.70;;;7.30;99.90;;;;;;6153572;23;20025;-89
2022/03/06 12:57:50;;;;;;;3.97;2.65;;;7.40;99.90;;;;;;6172021;23;20021;-90
2022/03/06 13:00:22;;;;;;;3.55;2.05;;;7.30;99.90;;;;;;6166759;23;20017;-90
2022/03/06 13:02:49;;;;;;;4.30;2.50;;;7.20;99.90;;;;;;6169728;23;20384;-89